sensor_id;sensor_type;location;lat;lon;timestamp;P1;durP1;ratioP1;P2;durP2;ratioP2
45007;SDS011;30743;52.008;5.644;2023-04-24T00:01:40;2.90;;;2.35;;
45007;SDS011;30743;52.008;5.644;2023-04-24T00:04:05;5.15;;;3.28;;
45007;SDS011;30743;52.008;5.644;2023-04-24T00:06:32;5.55;;;3.03;;
45007;SDS011;30743;52.008;5.644;2023-04-24T00:09:01;2.72;;;2.30;;
45007;SDS011;30743;52.008;5.644;2023-04-24T00:13:53;3.95;;;2.40;;
45007;SDS011;30743;52.008;5.644;2023-04-24T00:16:21;2.97;;;2.30;;
45007;SDS011;30743;52.008;5.644;2023-04-24T00:18:46;5.00;;;2.15;;
45007;SDS011;30743;52.008;5.644;2023-04-24T00:21:17;3.28;;;2.38;;
45007;SDS011;30743;52.008;5.644;2023-04-24T00:23:43;3.05;;;2.05;;
45007;SDS011;30743;52.008;5.644;2023-04-24T00:26:09;2.63;;;1.88;;
45007;SDS011;30743;52.008;5.644;2023-04-24T00:28:35;2.78;;;2.13;;
45007;SDS011;30743;52.008;5.644;2023-04-24T00:31:00;4.03;;;2.28;;
45007;SDS011;30743;52.008;5.644;2023-04-24T00:33:26;2.22;;;1.92;;
45007;SDS011;30743;52.008;5.644;2023-04-24T00:35:51;2.95;;;2.30;;
45007;SDS011;30743;52.008;5.644;2023-04-24T00:38:17;3.20;;;2.40;;
45007;SDS011;30743;52.008;5.644;2023-04-24T00:40:43;3.92;;;2.60;;
45007;SDS011;30743;52.008;5.644;2023-04-24T00:43:09;2.92;;;2.05;;
45007;SDS011;30743;52.008;5.644;2023-04-24T00:45:34;1.83;;;1.60;;
45007;SDS011;30743;52.008;5.644;2023-04-24T00:48:01;1.75;;;1.15;;
45007;SDS011;30743;52.008;5.644;2023-04-24T00:50:26;1.67;;;1.10;;
45007;SDS011;30743;52.008;5.644;2023-04-24T00:52:53;2.65;;;1.10;;
45007;SDS011;30743;52.008;5.644;2023-04-24T00:55:18;3.13;;;1.80;;
45007;SDS011;30743;52.008;5.644;2023-04-24T00:57:44;2.97;;;2.15;;
45007;SDS011;30743;52.008;5.644;2023-04-24T01:00:11;2.95;;;2.25;;
45007;SDS011;30743;52.008;5.644;2023-04-24T01:02:41;2.38;;;2.15;;
45007;SDS011;30743;52.008;5.644;2023-04-24T01:05:12;1.70;;;1.20;;
45007;SDS011;30743;52.008;5.644;2023-04-24T01:07:40;1.90;;;0.90;;
45007;SDS011;30743;52.008;5.644;2023-04-24T01:10:09;0.50;;;0.50;;
45007;SDS011;30743;52.008;5.644;2023-04-24T01:12:35;0.80;;;0.60;;
45007;SDS011;30743;52.008;5.644;2023-04-24T01:15:00;0.30;;;0.30;;
45007;SDS011;30743;52.008;5.644;2023-04-24T01:17:26;0.52;;;0.40;;
45007;SDS011;30743;52.008;5.644;2023-04-24T01:19:51;0.40;;;0.40;;
45007;SDS011;30743;52.008;5.644;2023-04-24T01:22:21;1.25;;;0.50;;
45007;SDS011;30743;52.008;5.644;2023-04-24T01:24:47;0.80;;;0.70;;
45007;SDS011;30743;52.008;5.644;2023-04-24T01:27:13;1.60;;;0.80;;
45007;SDS011;30743;52.008;5.644;2023-04-24T01:29:38;1.58;;;0.90;;
45007;SDS011;30743;52.008;5.644;2023-04-24T01:32:04;1.42;;;0.80;;
45007;SDS011;30743;52.008;5.644;2023-04-24T01:34:31;2.13;;;1.10;;
45007;SDS011;30743;52.008;5.644;2023-04-24T01:36:57;2.38;;;1.23;;
45007;SDS011;30743;52.008;5.644;2023-04-24T01:39:23;1.40;;;1.10;;
45007;SDS011;30743;52.008;5.644;2023-04-24T01:41:50;1.05;;;0.95;;
45007;SDS011;30743;52.008;5.644;2023-04-24T01:44:17;1.63;;;1.08;;
45007;SDS011;30743;52.008;5.644;2023-04-24T01:46:43;1.13;;;0.80;;
45007;SDS011;30743;52.008;5.644;2023-04-24T01:49:09;0.70;;;0.70;;
45007;SDS011;30743;52.008;5.644;2023-04-24T01:51:35;1.30;;;0.90;;
45007;SDS011;30743;52.008;5.644;2023-04-24T01:54:01;1.67;;;0.93;;
45007;SDS011;30743;52.008;5.644;2023-04-24T01:56:28;1.08;;;0.93;;
45007;SDS011;30743;52.008;5.644;2023-04-24T01:58:54;1.30;;;1.20;;
45007;SDS011;30743;52.008;5.644;2023-04-24T02:01:21;2.13;;;1.80;;
45007;SDS011;30743;52.008;5.644;2023-04-24T02:03:48;3.28;;;2.20;;
45007;SDS011;30743;52.008;5.644;2023-04-24T02:06:13;3.35;;;2.17;;
45007;SDS011;30743;52.008;5.644;2023-04-24T02:08:39;3.50;;;2.67;;
45007;SDS011;30743;52.008;5.644;2023-04-24T02:11:05;3.65;;;3.00;;
45007;SDS011;30743;52.008;5.644;2023-04-24T02:13:30;4.00;;;2.95;;
45007;SDS011;30743;52.008;5.644;2023-04-24T02:15:57;5.57;;;3.53;;
45007;SDS011;30743;52.008;5.644;2023-04-24T02:18:23;6.18;;;3.75;;
45007;SDS011;30743;52.008;5.644;2023-04-24T02:20:49;5.20;;;3.85;;
45007;SDS011;30743;52.008;5.644;2023-04-24T02:23:15;5.18;;;4.22;;
45007;SDS011;30743;52.008;5.644;2023-04-24T02:25:40;5.32;;;4.18;;
45007;SDS011;30743;52.008;5.644;2023-04-24T02:28:06;8.10;;;4.82;;
45007;SDS011;30743;52.008;5.644;2023-04-24T02:30:31;6.22;;;5.03;;
45007;SDS011;30743;52.008;5.644;2023-04-24T02:32:57;6.15;;;5.00;;
45007;SDS011;30743;52.008;5.644;2023-04-24T02:35:22;6.18;;;5.00;;
45007;SDS011;30743;52.008;5.644;2023-04-24T02:37:48;7.20;;;5.50;;
45007;SDS011;30743;52.008;5.644;2023-04-24T02:40:13;7.47;;;5.60;;
45007;SDS011;30743;52.008;5.644;2023-04-24T02:42:39;10.88;;;6.65;;
45007;SDS011;30743;52.008;5.644;2023-04-24T02:45:05;8.48;;;7.05;;
45007;SDS011;30743;52.008;5.644;2023-04-24T02:47:31;9.45;;;7.70;;
45007;SDS011;30743;52.008;5.644;2023-04-24T02:49:56;12.25;;;7.22;;
45007;SDS011;30743;52.008;5.644;2023-04-24T02:52:22;10.85;;;7.85;;
45007;SDS011;30743;52.008;5.644;2023-04-24T02:54:47;9.90;;;7.43;;
45007;SDS011;30743;52.008;5.644;2023-04-24T02:57:13;9.55;;;6.95;;
45007;SDS011;30743;52.008;5.644;2023-04-24T02:59:38;8.40;;;6.13;;
45007;SDS011;30743;52.008;5.644;2023-04-24T03:02:04;8.00;;;6.10;;
45007;SDS011;30743;52.008;5.644;2023-04-24T03:04:30;9.23;;;5.80;;
45007;SDS011;30743;52.008;5.644;2023-04-24T03:06:56;6.82;;;5.55;;
45007;SDS011;30743;52.008;5.644;2023-04-24T03:09:22;8.05;;;5.50;;
45007;SDS011;30743;52.008;5.644;2023-04-24T03:11:48;7.28;;;5.53;;
45007;SDS011;30743;52.008;5.644;2023-04-24T03:14:14;8.10;;;5.35;;
45007;SDS011;30743;52.008;5.644;2023-04-24T03:16:40;7.55;;;5.20;;
45007;SDS011;30743;52.008;5.644;2023-04-24T03:19:05;7.75;;;5.40;;
45007;SDS011;30743;52.008;5.644;2023-04-24T03:21:31;6.45;;;5.53;;
45007;SDS011;30743;52.008;5.644;2023-04-24T03:23:56;8.00;;;6.15;;
45007;SDS011;30743;52.008;5.644;2023-04-24T03:26:22;7.93;;;6.30;;
45007;SDS011;30743;52.008;5.644;2023-04-24T03:28:47;7.88;;;6.38;;
45007;SDS011;30743;52.008;5.644;2023-04-24T03:31:13;8.32;;;6.90;;
45007;SDS011;30743;52.008;5.644;2023-04-24T03:33:40;11.02;;;7.60;;
45007;SDS011;30743;52.008;5.644;2023-04-24T03:36:06;11.13;;;8.48;;
45007;SDS011;30743;52.008;5.644;2023-04-24T03:38:31;12.43;;;8.95;;
45007;SDS011;30743;52.008;5.644;2023-04-24T03:40:57;13.00;;;8.88;;
45007;SDS011;30743;52.008;5.644;2023-04-24T03:43:22;10.98;;;9.40;;
45007;SDS011;30743;52.008;5.644;2023-04-24T03:45:48;13.95;;;9.88;;
45007;SDS011;30743;52.008;5.644;2023-04-24T03:48:14;13.43;;;10.70;;
45007;SDS011;30743;52.008;5.644;2023-04-24T03:50:39;14.70;;;11.43;;
45007;SDS011;30743;52.008;5.644;2023-04-24T03:53:05;15.02;;;11.35;;
45007;SDS011;30743;52.008;5.644;2023-04-24T03:55:30;13.77;;;11.85;;
45007;SDS011;30743;52.008;5.644;2023-04-24T03:57:56;14.55;;;11.35;;
45007;SDS011;30743;52.008;5.644;2023-04-24T04:00:21;16.00;;;12.07;;
45007;SDS011;30743;52.008;5.644;2023-04-24T04:02:47;17.90;;;12.93;;
45007;SDS011;30743;52.008;5.644;2023-04-24T04:05:13;14.88;;;12.20;;
45007;SDS011;30743;52.008;5.644;2023-04-24T04:07:38;17.33;;;13.07;;
45007;SDS011;30743;52.008;5.644;2023-04-24T04:10:04;18.67;;;12.73;;
45007;SDS011;30743;52.008;5.644;2023-04-24T04:12:31;20.25;;;14.60;;
45007;SDS011;30743;52.008;5.644;2023-04-24T04:14:57;19.30;;;13.20;;
45007;SDS011;30743;52.008;5.644;2023-04-24T04:17:23;20.13;;;15.43;;
45007;SDS011;30743;52.008;5.644;2023-04-24T04:19:48;23.80;;;15.90;;
45007;SDS011;30743;52.008;5.644;2023-04-24T04:22:14;19.48;;;15.68;;
45007;SDS011;30743;52.008;5.644;2023-04-24T04:24:39;21.75;;;15.70;;
45007;SDS011;30743;52.008;5.644;2023-04-24T04:27:05;20.05;;;14.55;;
45007;SDS011;30743;52.008;5.644;2023-04-24T04:29:31;20.55;;;15.38;;
45007;SDS011;30743;52.008;5.644;2023-04-24T04:31:57;21.42;;;15.38;;
45007;SDS011;30743;52.008;5.644;2023-04-24T04:34:23;21.25;;;16.00;;
45007;SDS011;30743;52.008;5.644;2023-04-24T04:36:49;21.27;;;14.95;;
45007;SDS011;30743;52.008;5.644;2023-04-24T04:39:15;21.83;;;15.25;;
45007;SDS011;30743;52.008;5.644;2023-04-24T04:41:41;20.17;;;15.00;;
45007;SDS011;30743;52.008;5.644;2023-04-24T04:44:07;22.33;;;15.90;;
45007;SDS011;30743;52.008;5.644;2023-04-24T04:46:33;13.75;;;10.00;;
45007;SDS011;30743;52.008;5.644;2023-04-24T04:49:01;13.85;;;9.68;;
45007;SDS011;30743;52.008;5.644;2023-04-24T04:51:27;11.57;;;8.15;;
45007;SDS011;30743;52.008;5.644;2023-04-24T04:53:53;9.55;;;6.63;;
45007;SDS011;30743;52.008;5.644;2023-04-24T04:56:19;9.93;;;6.80;;
45007;SDS011;30743;52.008;5.644;2023-04-24T04:58:44;7.78;;;6.40;;
45007;SDS011;30743;52.008;5.644;2023-04-24T05:01:10;9.38;;;5.63;;
45007;SDS011;30743;52.008;5.644;2023-04-24T05:03:35;7.43;;;5.75;;
45007;SDS011;30743;52.008;5.644;2023-04-24T05:06:01;6.45;;;5.35;;
45007;SDS011;30743;52.008;5.644;2023-04-24T05:08:27;6.63;;;4.50;;
45007;SDS011;30743;52.008;5.644;2023-04-24T05:10:53;6.40;;;4.35;;
45007;SDS011;30743;52.008;5.644;2023-04-24T05:13:19;5.10;;;4.00;;
45007;SDS011;30743;52.008;5.644;2023-04-24T05:15:45;4.20;;;3.13;;
45007;SDS011;30743;52.008;5.644;2023-04-24T05:18:11;5.03;;;3.17;;
45007;SDS011;30743;52.008;5.644;2023-04-24T05:20:36;4.32;;;3.15;;
45007;SDS011;30743;52.008;5.644;2023-04-24T05:23:02;4.20;;;2.90;;
45007;SDS011;30743;52.008;5.644;2023-04-24T05:25:27;2.63;;;2.10;;
45007;SDS011;30743;52.008;5.644;2023-04-24T05:27:53;3.72;;;2.55;;
45007;SDS011;30743;52.008;5.644;2023-04-24T05:30:19;3.08;;;2.40;;
45007;SDS011;30743;52.008;5.644;2023-04-24T05:32:44;2.97;;;2.13;;
45007;SDS011;30743;52.008;5.644;2023-04-24T05:35:10;3.45;;;2.42;;
45007;SDS011;30743;52.008;5.644;2023-04-24T05:37:36;5.10;;;3.60;;
45007;SDS011;30743;52.008;5.644;2023-04-24T05:40:02;5.78;;;3.45;;
45007;SDS011;30743;52.008;5.644;2023-04-24T05:42:30;4.88;;;3.20;;
45007;SDS011;30743;52.008;5.644;2023-04-24T05:44:55;4.85;;;2.97;;
45007;SDS011;30743;52.008;5.644;2023-04-24T05:47:21;3.63;;;2.55;;
45007;SDS011;30743;52.008;5.644;2023-04-24T05:49:47;4.40;;;2.83;;
45007;SDS011;30743;52.008;5.644;2023-04-24T05:52:12;3.17;;;2.47;;
45007;SDS011;30743;52.008;5.644;2023-04-24T05:54:38;3.15;;;2.70;;
45007;SDS011;30743;52.008;5.644;2023-04-24T05:57:04;3.38;;;2.63;;
45007;SDS011;30743;52.008;5.644;2023-04-24T05:59:32;3.47;;;2.42;;
45007;SDS011;30743;52.008;5.644;2023-04-24T06:01:59;3.75;;;2.88;;
45007;SDS011;30743;52.008;5.644;2023-04-24T06:04:24;3.90;;;2.70;;
45007;SDS011;30743;52.008;5.644;2023-04-24T06:06:50;5.53;;;2.42;;
45007;SDS011;30743;52.008;5.644;2023-04-24T06:09:20;3.40;;;2.67;;
45007;SDS011;30743;52.008;5.644;2023-04-24T06:11:49;2.75;;;2.17;;
45007;SDS011;30743;52.008;5.644;2023-04-24T06:14:17;3.97;;;2.45;;
45007;SDS011;30743;52.008;5.644;2023-04-24T06:16:43;3.92;;;2.38;;
45007;SDS011;30743;52.008;5.644;2023-04-24T06:19:09;2.30;;;2.00;;
45007;SDS011;30743;52.008;5.644;2023-04-24T06:21:34;2.42;;;2.03;;
45007;SDS011;30743;52.008;5.644;2023-04-24T06:24:00;2.72;;;1.77;;
45007;SDS011;30743;52.008;5.644;2023-04-24T06:26:26;2.33;;;1.80;;
45007;SDS011;30743;52.008;5.644;2023-04-24T06:28:52;4.95;;;1.95;;
45007;SDS011;30743;52.008;5.644;2023-04-24T06:31:19;3.10;;;1.92;;
45007;SDS011;30743;52.008;5.644;2023-04-24T06:33:45;2.92;;;1.55;;
45007;SDS011;30743;52.008;5.644;2023-04-24T06:36:11;2.83;;;1.65;;
45007;SDS011;30743;52.008;5.644;2023-04-24T06:38:37;2.20;;;1.70;;
45007;SDS011;30743;52.008;5.644;2023-04-24T06:41:03;2.25;;;1.48;;
45007;SDS011;30743;52.008;5.644;2023-04-24T06:43:30;1.98;;;1.40;;
45007;SDS011;30743;52.008;5.644;2023-04-24T06:45:56;1.60;;;1.30;;
45007;SDS011;30743;52.008;5.644;2023-04-24T06:48:23;5.45;;;2.65;;
45007;SDS011;30743;52.008;5.644;2023-04-24T06:50:49;3.08;;;1.77;;
45007;SDS011;30743;52.008;5.644;2023-04-24T06:53:14;2.40;;;1.60;;
45007;SDS011;30743;52.008;5.644;2023-04-24T06:55:40;3.65;;;2.25;;
45007;SDS011;30743;52.008;5.644;2023-04-24T06:58:06;3.55;;;1.83;;
45007;SDS011;30743;52.008;5.644;2023-04-24T07:00:31;2.15;;;1.70;;
45007;SDS011;30743;52.008;5.644;2023-04-24T07:02:57;1.25;;;1.10;;
45007;SDS011;30743;52.008;5.644;2023-04-24T07:05:22;2.55;;;0.90;;
45007;SDS011;30743;52.008;5.644;2023-04-24T07:07:51;1.30;;;0.80;;
45007;SDS011;30743;52.008;5.644;2023-04-24T07:10:19;2.75;;;0.95;;
45007;SDS011;30743;52.008;5.644;2023-04-24T07:12:45;1.58;;;1.20;;
45007;SDS011;30743;52.008;5.644;2023-04-24T07:15:11;1.77;;;1.23;;
45007;SDS011;30743;52.008;5.644;2023-04-24T07:17:37;2.40;;;1.88;;
45007;SDS011;30743;52.008;5.644;2023-04-24T07:20:03;2.90;;;2.00;;
45007;SDS011;30743;52.008;5.644;2023-04-24T07:22:30;4.20;;;2.80;;
45007;SDS011;30743;52.008;5.644;2023-04-24T07:24:56;5.07;;;3.13;;
45007;SDS011;30743;52.008;5.644;2023-04-24T07:27:21;5.57;;;3.70;;
45007;SDS011;30743;52.008;5.644;2023-04-24T07:29:47;5.53;;;3.90;;
45007;SDS011;30743;52.008;5.644;2023-04-24T07:32:13;6.43;;;4.70;;
45007;SDS011;30743;52.008;5.644;2023-04-24T07:34:39;5.85;;;4.38;;
45007;SDS011;30743;52.008;5.644;2023-04-24T07:37:05;6.80;;;4.93;;
45007;SDS011;30743;52.008;5.644;2023-04-24T07:39:31;8.35;;;6.15;;
45007;SDS011;30743;52.008;5.644;2023-04-24T07:41:56;6.85;;;5.20;;
45007;SDS011;30743;52.008;5.644;2023-04-24T07:44:23;9.75;;;5.68;;
45007;SDS011;30743;52.008;5.644;2023-04-24T07:46:49;9.27;;;5.88;;
45007;SDS011;30743;52.008;5.644;2023-04-24T07:49:15;7.78;;;5.60;;
45007;SDS011;30743;52.008;5.644;2023-04-24T07:51:40;7.50;;;5.47;;
45007;SDS011;30743;52.008;5.644;2023-04-24T07:54:06;8.73;;;4.95;;
45007;SDS011;30743;52.008;5.644;2023-04-24T07:56:32;6.97;;;5.03;;
45007;SDS011;30743;52.008;5.644;2023-04-24T07:58:58;8.70;;;5.55;;
45007;SDS011;30743;52.008;5.644;2023-04-24T08:01:24;7.32;;;5.10;;
45007;SDS011;30743;52.008;5.644;2023-04-24T08:03:50;8.05;;;4.93;;
45007;SDS011;30743;52.008;5.644;2023-04-24T08:06:16;6.57;;;5.25;;
45007;SDS011;30743;52.008;5.644;2023-04-24T08:08:41;10.68;;;5.80;;
45007;SDS011;30743;52.008;5.644;2023-04-24T08:11:07;10.85;;;5.35;;
45007;SDS011;30743;52.008;5.644;2023-04-24T08:13:35;8.40;;;5.65;;
45007;SDS011;30743;52.008;5.644;2023-04-24T08:16:01;8.60;;;5.38;;
45007;SDS011;30743;52.008;5.644;2023-04-24T08:18:27;8.68;;;5.28;;
45007;SDS011;30743;52.008;5.644;2023-04-24T08:20:52;9.65;;;6.30;;
45007;SDS011;30743;52.008;5.644;2023-04-24T08:23:18;6.82;;;5.35;;
45007;SDS011;30743;52.008;5.644;2023-04-24T08:25:43;7.35;;;5.00;;
45007;SDS011;30743;52.008;5.644;2023-04-24T08:28:09;10.40;;;5.32;;
45007;SDS011;30743;52.008;5.644;2023-04-24T08:30:35;10.68;;;5.75;;
45007;SDS011;30743;52.008;5.644;2023-04-24T08:33:01;9.85;;;5.72;;
45007;SDS011;30743;52.008;5.644;2023-04-24T08:35:27;9.48;;;5.38;;
45007;SDS011;30743;52.008;5.644;2023-04-24T08:37:53;8.60;;;5.00;;
45007;SDS011;30743;52.008;5.644;2023-04-24T08:40:18;12.07;;;5.40;;
45007;SDS011;30743;52.008;5.644;2023-04-24T08:42:53;6.57;;;3.63;;
45007;SDS011;30743;52.008;5.644;2023-04-24T08:45:21;7.82;;;3.63;;
45007;SDS011;30743;52.008;5.644;2023-04-24T08:47:46;7.38;;;3.03;;
45007;SDS011;30743;52.008;5.644;2023-04-24T08:50:14;7.15;;;2.95;;
45007;SDS011;30743;52.008;5.644;2023-04-24T08:52:40;5.00;;;2.33;;
45007;SDS011;30743;52.008;5.644;2023-04-24T08:55:07;7.43;;;2.80;;
45007;SDS011;30743;52.008;5.644;2023-04-24T08:57:33;5.53;;;2.50;;
45007;SDS011;30743;52.008;5.644;2023-04-24T09:00:00;9.27;;;2.53;;
45007;SDS011;30743;52.008;5.644;2023-04-24T09:02:26;10.05;;;3.00;;
45007;SDS011;30743;52.008;5.644;2023-04-24T09:04:52;8.75;;;3.30;;
45007;SDS011;30743;52.008;5.644;2023-04-24T09:07:20;8.75;;;2.95;;
45007;SDS011;30743;52.008;5.644;2023-04-24T09:09:49;11.43;;;2.85;;
45007;SDS011;30743;52.008;5.644;2023-04-24T09:12:16;8.50;;;2.92;;
45007;SDS011;30743;52.008;5.644;2023-04-24T09:14:42;11.20;;;2.78;;
45007;SDS011;30743;52.008;5.644;2023-04-24T09:17:10;6.95;;;1.60;;
45007;SDS011;30743;52.008;5.644;2023-04-24T09:19:38;7.82;;;2.40;;
45007;SDS011;30743;52.008;5.644;2023-04-24T09:22:05;7.28;;;1.98;;
45007;SDS011;30743;52.008;5.644;2023-04-24T09:24:31;8.95;;;1.73;;
45007;SDS011;30743;52.008;5.644;2023-04-24T09:26:58;6.85;;;2.60;;
45007;SDS011;30743;52.008;5.644;2023-04-24T09:29:26;7.35;;;2.25;;
45007;SDS011;30743;52.008;5.644;2023-04-24T09:31:52;8.20;;;1.52;;
45007;SDS011;30743;52.008;5.644;2023-04-24T09:34:21;7.82;;;1.90;;
45007;SDS011;30743;52.008;5.644;2023-04-24T09:36:48;9.13;;;2.05;;
45007;SDS011;30743;52.008;5.644;2023-04-24T09:39:15;3.65;;;1.33;;
45007;SDS011;30743;52.008;5.644;2023-04-24T09:41:52;6.25;;;2.00;;
45007;SDS011;30743;52.008;5.644;2023-04-24T09:44:19;4.65;;;1.75;;
45007;SDS011;30743;52.008;5.644;2023-04-24T09:46:51;5.38;;;1.88;;
45007;SDS011;30743;52.008;5.644;2023-04-24T09:49:22;6.57;;;2.25;;
45007;SDS011;30743;52.008;5.644;2023-04-24T09:51:49;4.60;;;1.58;;
45007;SDS011;30743;52.008;5.644;2023-04-24T09:54:16;7.40;;;2.20;;
45007;SDS011;30743;52.008;5.644;2023-04-24T09:56:44;7.88;;;1.75;;
45007;SDS011;30743;52.008;5.644;2023-04-24T09:59:10;7.50;;;1.73;;
45007;SDS011;30743;52.008;5.644;2023-04-24T10:01:36;6.15;;;2.15;;
45007;SDS011;30743;52.008;5.644;2023-04-24T10:04:03;6.85;;;1.73;;
45007;SDS011;30743;52.008;5.644;2023-04-24T10:06:33;4.18;;;1.63;;
45007;SDS011;30743;52.008;5.644;2023-04-24T10:09:00;7.78;;;1.95;;
45007;SDS011;30743;52.008;5.644;2023-04-24T10:11:26;5.68;;;1.95;;
45007;SDS011;30743;52.008;5.644;2023-04-24T10:13:53;7.50;;;1.67;;
45007;SDS011;30743;52.008;5.644;2023-04-24T10:16:18;6.10;;;1.90;;
45007;SDS011;30743;52.008;5.644;2023-04-24T10:18:46;7.50;;;1.90;;
45007;SDS011;30743;52.008;5.644;2023-04-24T10:21:13;2.75;;;1.30;;
45007;SDS011;30743;52.008;5.644;2023-04-24T10:23:39;4.55;;;1.15;;
45007;SDS011;30743;52.008;5.644;2023-04-24T10:26:08;8.27;;;2.17;;
45007;SDS011;30743;52.008;5.644;2023-04-24T10:28:34;4.75;;;1.30;;
45007;SDS011;30743;52.008;5.644;2023-04-24T10:31:02;2.95;;;1.05;;
45007;SDS011;30743;52.008;5.644;2023-04-24T10:33:28;4.53;;;1.30;;
45007;SDS011;30743;52.008;5.644;2023-04-24T10:35:55;4.55;;;1.40;;
45007;SDS011;30743;52.008;5.644;2023-04-24T10:38:24;4.25;;;1.30;;
45007;SDS011;30743;52.008;5.644;2023-04-24T10:43:23;4.63;;;1.48;;
45007;SDS011;30743;52.008;5.644;2023-04-24T10:46:00;7.22;;;2.03;;
45007;SDS011;30743;52.008;5.644;2023-04-24T10:48:27;3.08;;;1.05;;
45007;SDS011;30743;52.008;5.644;2023-04-24T10:50:53;7.10;;;1.23;;
45007;SDS011;30743;52.008;5.644;2023-04-24T10:53:19;5.88;;;1.00;;
45007;SDS011;30743;52.008;5.644;2023-04-24T10:55:49;2.83;;;1.25;;
45007;SDS011;30743;52.008;5.644;2023-04-24T10:58:16;3.92;;;0.90;;
45007;SDS011;30743;52.008;5.644;2023-04-24T11:00:56;3.83;;;1.00;;
45007;SDS011;30743;52.008;5.644;2023-04-24T11:03:24;1.38;;;0.77;;
45007;SDS011;30743;52.008;5.644;2023-04-24T11:08:31;1.98;;;0.70;;
45007;SDS011;30743;52.008;5.644;2023-04-24T11:11:08;5.63;;;0.88;;
45007;SDS011;30743;52.008;5.644;2023-04-24T11:14:00;4.30;;;0.90;;
45007;SDS011;30743;52.008;5.644;2023-04-24T11:19:04;1.55;;;0.70;;
45007;SDS011;30743;52.008;5.644;2023-04-24T11:27:38;1.05;;;0.40;;
45007;SDS011;30743;52.008;5.644;2023-04-24T11:32:14;5.53;;;0.60;;
45007;SDS011;30743;52.008;5.644;2023-04-24T11:34:44;4.20;;;0.50;;
45007;SDS011;30743;52.008;5.644;2023-04-24T11:37:11;2.45;;;0.40;;
45007;SDS011;30743;52.008;5.644;2023-04-24T11:39:37;2.38;;;0.60;;
45007;SDS011;30743;52.008;5.644;2023-04-24T11:42:03;1.23;;;0.30;;
45007;SDS011;30743;52.008;5.644;2023-04-24T11:44:31;2.60;;;0.75;;
45007;SDS011;30743;52.008;5.644;2023-04-24T11:46:58;0.95;;;0.60;;
45007;SDS011;30743;52.008;5.644;2023-04-24T11:49:23;1.15;;;0.68;;
45007;SDS011;30743;52.008;5.644;2023-04-24T11:51:49;4.97;;;0.90;;
45007;SDS011;30743;52.008;5.644;2023-04-24T11:54:14;3.33;;;0.65;;
45007;SDS011;30743;52.008;5.644;2023-04-24T11:56:44;2.85;;;0.93;;
45007;SDS011;30743;52.008;5.644;2023-04-24T11:59:11;1.58;;;0.60;;
45007;SDS011;30743;52.008;5.644;2023-04-24T12:01:44;3.30;;;0.98;;
45007;SDS011;30743;52.008;5.644;2023-04-24T12:04:10;2.30;;;0.70;;
45007;SDS011;30743;52.008;5.644;2023-04-24T12:06:36;3.03;;;0.80;;
45007;SDS011;30743;52.008;5.644;2023-04-24T12:09:02;1.40;;;0.63;;
45007;SDS011;30743;52.008;5.644;2023-04-24T12:11:27;2.05;;;0.60;;
45007;SDS011;30743;52.008;5.644;2023-04-24T12:13:53;1.60;;;0.60;;
45007;SDS011;30743;52.008;5.644;2023-04-24T12:16:19;2.92;;;0.75;;
45007;SDS011;30743;52.008;5.644;2023-04-24T12:18:45;2.80;;;0.60;;
45007;SDS011;30743;52.008;5.644;2023-04-24T12:21:17;1.38;;;0.50;;
45007;SDS011;30743;52.008;5.644;2023-04-24T12:23:47;1.08;;;0.40;;
45007;SDS011;30743;52.008;5.644;2023-04-24T12:26:17;0.70;;;0.30;;
45007;SDS011;30743;52.008;5.644;2023-04-24T12:28:45;0.70;;;0.40;;
45007;SDS011;30743;52.008;5.644;2023-04-24T12:31:12;2.25;;;0.30;;
45007;SDS011;30743;52.008;5.644;2023-04-24T12:33:37;2.78;;;0.70;;
45007;SDS011;30743;52.008;5.644;2023-04-24T12:36:03;1.17;;;0.50;;
45007;SDS011;30743;52.008;5.644;2023-04-24T12:38:30;1.83;;;0.40;;
45007;SDS011;30743;52.008;5.644;2023-04-24T12:41:03;3.75;;;0.60;;
45007;SDS011;30743;52.008;5.644;2023-04-24T12:43:32;1.95;;;0.70;;
45007;SDS011;30743;52.008;5.644;2023-04-24T12:45:58;2.28;;;0.60;;
45007;SDS011;30743;52.008;5.644;2023-04-24T12:48:24;4.20;;;0.80;;
45007;SDS011;30743;52.008;5.644;2023-04-24T12:50:50;2.92;;;0.73;;
45007;SDS011;30743;52.008;5.644;2023-04-24T12:53:16;4.10;;;0.63;;
45007;SDS011;30743;52.008;5.644;2023-04-24T12:55:41;2.28;;;0.60;;
45007;SDS011;30743;52.008;5.644;2023-04-24T12:58:07;2.25;;;0.70;;
45007;SDS011;30743;52.008;5.644;2023-04-24T13:00:33;1.85;;;0.60;;
45007;SDS011;30743;52.008;5.644;2023-04-24T13:02:58;3.90;;;1.00;;
45007;SDS011;30743;52.008;5.644;2023-04-24T13:05:24;4.22;;;0.90;;
45007;SDS011;30743;52.008;5.644;2023-04-24T13:07:49;5.57;;;0.70;;
45007;SDS011;30743;52.008;5.644;2023-04-24T13:10:15;2.28;;;0.90;;
45007;SDS011;30743;52.008;5.644;2023-04-24T13:12:41;3.53;;;1.17;;
45007;SDS011;30743;52.008;5.644;2023-04-24T13:15:10;5.38;;;1.25;;
45007;SDS011;30743;52.008;5.644;2023-04-24T13:17:35;2.28;;;0.73;;
45007;SDS011;30743;52.008;5.644;2023-04-24T13:20:01;4.05;;;1.00;;
45007;SDS011;30743;52.008;5.644;2023-04-24T13:22:27;5.07;;;1.10;;
45007;SDS011;30743;52.008;5.644;2023-04-24T13:24:53;3.97;;;1.05;;
45007;SDS011;30743;52.008;5.644;2023-04-24T13:27:19;3.75;;;0.75;;
45007;SDS011;30743;52.008;5.644;2023-04-24T13:29:45;3.38;;;1.08;;
45007;SDS011;30743;52.008;5.644;2023-04-24T13:32:11;3.13;;;0.77;;
45007;SDS011;30743;52.008;5.644;2023-04-24T13:34:36;5.70;;;1.48;;
45007;SDS011;30743;52.008;5.644;2023-04-24T13:37:02;3.55;;;1.10;;
45007;SDS011;30743;52.008;5.644;2023-04-24T13:39:29;4.15;;;1.10;;
45007;SDS011;30743;52.008;5.644;2023-04-24T13:41:54;5.30;;;1.20;;
45007;SDS011;30743;52.008;5.644;2023-04-24T13:44:20;4.60;;;1.10;;
45007;SDS011;30743;52.008;5.644;2023-04-24T13:46:48;3.88;;;1.13;;
45007;SDS011;30743;52.008;5.644;2023-04-24T13:49:14;4.28;;;1.15;;
45007;SDS011;30743;52.008;5.644;2023-04-24T13:51:41;6.13;;;1.40;;
45007;SDS011;30743;52.008;5.644;2023-04-24T13:54:07;4.30;;;1.02;;
45007;SDS011;30743;52.008;5.644;2023-04-24T13:56:33;3.13;;;1.05;;
45007;SDS011;30743;52.008;5.644;2023-04-24T13:58:59;4.97;;;1.20;;
45007;SDS011;30743;52.008;5.644;2023-04-24T14:01:25;5.88;;;1.85;;
45007;SDS011;30743;52.008;5.644;2023-04-24T14:03:51;7.18;;;1.48;;
45007;SDS011;30743;52.008;5.644;2023-04-24T14:06:17;6.22;;;1.40;;
45007;SDS011;30743;52.008;5.644;2023-04-24T14:08:43;7.70;;;1.73;;
45007;SDS011;30743;52.008;5.644;2023-04-24T14:11:09;4.78;;;1.27;;
45007;SDS011;30743;52.008;5.644;2023-04-24T14:13:35;3.35;;;0.93;;
45007;SDS011;30743;52.008;5.644;2023-04-24T14:16:02;4.32;;;1.10;;
45007;SDS011;30743;52.008;5.644;2023-04-24T14:18:28;4.72;;;1.20;;
45007;SDS011;30743;52.008;5.644;2023-04-24T14:20:53;5.43;;;1.30;;
45007;SDS011;30743;52.008;5.644;2023-04-24T14:23:19;4.68;;;1.73;;
45007;SDS011;30743;52.008;5.644;2023-04-24T14:25:45;5.03;;;1.63;;
45007;SDS011;30743;52.008;5.644;2023-04-24T14:28:11;6.47;;;2.13;;
45007;SDS011;30743;52.008;5.644;2023-04-24T14:30:36;5.50;;;1.50;;
45007;SDS011;30743;52.008;5.644;2023-04-24T14:33:02;6.00;;;1.38;;
45007;SDS011;30743;52.008;5.644;2023-04-24T14:35:29;3.38;;;0.98;;
45007;SDS011;30743;52.008;5.644;2023-04-24T14:37:56;4.30;;;1.00;;
45007;SDS011;30743;52.008;5.644;2023-04-24T14:40:22;6.50;;;1.23;;
45007;SDS011;30743;52.008;5.644;2023-04-24T14:42:47;3.95;;;1.20;;
45007;SDS011;30743;52.008;5.644;2023-04-24T14:45:13;6.15;;;2.42;;
45007;SDS011;30743;52.008;5.644;2023-04-24T14:47:38;3.58;;;1.40;;
45007;SDS011;30743;52.008;5.644;2023-04-24T14:50:04;12.35;;;4.47;;
45007;SDS011;30743;52.008;5.644;2023-04-24T14:52:30;3.70;;;1.42;;
45007;SDS011;30743;52.008;5.644;2023-04-24T14:54:56;7.25;;;1.90;;
45007;SDS011;30743;52.008;5.644;2023-04-24T14:57:22;7.72;;;2.03;;
45007;SDS011;30743;52.008;5.644;2023-04-24T14:59:48;4.32;;;1.35;;